Time;durP1;ratioP1;P1;durP2;ratioP2;P2;SDS_P1;SDS_P2;PMS_P1;PMS_P2;Temp;Humidity;BMP_temperature;BMP_pressure;BME280_temperature;BME280_humidity;BME280_pressure;Samples;Min_cycle;Max_cycle;Signal;HPM_P1;HPM_P2
2022/05/19 00:02:10;;;;;;;;;;;14.50;99.90;;;;;;5034727;28;19925;-79
2022/05/19 00:04:37;;;;;;;;;;;14.40;99.90;;;;;;5034578;28;19936;-85
2022/05/19 00:07:03;;;;;;;;;;;14.40;99.90;;;;;;5035130;28;19924;-80
2022/05/19 00:09:28;;;;;;;;;;;14.30;99.90;;;;;;5034858;28;19944;-79
2022/05/19 00:11:55;;;;;;;;;;;14.30;99.90;;;;;;5052546;28;19928;-80
2022/05/19 00:14:20;;;;;;;;;;;14.20;99.90;;;;;;5035032;28;19932;-79
2022/05/19 00:16:46;;;;;;;;;;;14.30;99.90;;;;;;5018466;28;19925;-81
2022/05/19 00:19:12;;;;;;;;;;;14.20;99.90;;;;;;5034704;28;19929;-79
2022/05/19 00:21:38;;;;;;;;;;;14.20;99.90;;;;;;5018658;28;20011;-86
2022/05/19 00:24:04;;;;;;;;;;;14.20;99.90;;;;;;5034469;28;20012;-79
2022/05/19 00:26:30;;;;;;;;;;;14.20;99.90;;;;;;5034766;28;19971;-79
2022/05/19 00:28:55;;;;;;;;;;;14.20;99.90;;;;;;5034485;28;19936;-79
2022/05/19 00:31:21;;;;;;;;;;;14.20;99.90;;;;;;5034637;28;19951;-79
2022/05/19 00:33:47;;;;;;;;;;;14.20;99.90;;;;;;5018119;28;19925;-80
2022/05/19 00:36:15;;;;;;;;;;;14.10;99.90;;;;;;5034082;28;20015;-80
2022/05/19 00:38:40;;;;;;;;;;;14.10;99.90;;;;;;5033002;28;19925;-85
2022/05/19 00:41:06;;;;;;;;;;;14.00;99.90;;;;;;5035033;28;19928;-79
2022/05/19 00:43:36;;;;;;;;;;;13.90;99.90;;;;;;5052452;28;19936;-79
2022/05/19 00:46:05;;;;;;;;;;;13.90;99.90;;;;;;5034148;28;20053;-80
2022/05/19 00:48:51;;;;;;;;;;;13.80;99.90;;;;;;5034257;28;19932;-79
2022/05/19 00:51:17;;;;;;;;;;;13.90;99.90;;;;;;5015256;28;19936;-80
2022/05/19 00:53:47;;;;;;;;;;;14.00;99.90;;;;;;5014735;28;19925;-82
2022/05/19 00:56:32;;;;;;;;;;;13.90;99.90;;;;;;5032062;28;19983;-79
2022/05/19 00:59:21;;;;;;;;;;;13.90;99.90;;;;;;5034171;28;20344;-80
2022/05/19 01:01:46;;;;;;;;;;;13.90;99.90;;;;;;5040294;28;19928;-81
2022/05/19 01:04:18;;;;;;;;;;;13.90;99.90;;;;;;5001454;28;19931;-80
2022/05/19 01:06:45;;;;;;;;;;;13.90;99.90;;;;;;5033681;28;20356;-85
2022/05/19 01:09:12;;;;;;;;;;;13.80;99.90;;;;;;5018572;28;19965;-79
2022/05/19 01:11:38;;;;;;;;;;;13.80;99.90;;;;;;5038346;28;19924;-80
2022/05/19 01:14:05;;;;;;;;;;;13.80;99.90;;;;;;5038264;28;20735;-79
2022/05/19 01:16:31;;;;;;;;;;;13.80;99.90;;;;;;5038196;28;19925;-80
2022/05/19 01:18:57;;;;;;;;;;;13.80;99.90;;;;;;5038034;28;19929;-80
2022/05/19 01:21:25;;;;;;;;;;;13.70;99.90;;;;;;5021734;28;19924;-80
2022/05/19 01:23:53;;;;;;;;;;;13.80;99.90;;;;;;5021559;28;19994;-79
2022/05/19 01:26:38;;;;;;;;;;;13.70;99.90;;;;;;5038082;28;19925;-78
2022/05/19 01:29:04;;;;;;;;;;;13.70;99.90;;;;;;5038819;28;19931;-78
2022/05/19 01:31:34;;;;;;;;;;;13.70;99.90;;;;;;4991244;28;19928;-77
2022/05/19 01:34:00;;;;;;;;;;;13.70;99.90;;;;;;5018814;28;19936;-77
2022/05/19 01:36:26;;;;;;;;;;;13.70;99.90;;;;;;5019552;28;19929;-77
2022/05/19 01:39:00;;;;;;;;;;;13.70;99.90;;;;;;5018803;28;19925;-77
2022/05/19 01:41:44;;;;;;;;;;;13.70;99.90;;;;;;5002793;28;19928;-78
2022/05/19 01:44:10;;;;;;;;;;;13.70;99.90;;;;;;5039285;28;19937;-78
2022/05/19 01:46:37;;;;;;;;;;;13.80;99.90;;;;;;5038256;28;20451;-77
2022/05/19 01:49:12;;;;;;;;;;;13.80;99.90;;;;;;5055401;28;20395;-78
2022/05/19 01:51:49;;;;;;;;;;;13.80;99.90;;;;;;5037947;28;20018;-78
2022/05/19 01:54:28;;;;;;;;;;;13.80;99.90;;;;;;5055255;28;19932;-79
2022/05/19 01:56:53;;;;;;;;;;;13.90;99.90;;;;;;5036896;28;19933;-78
2022/05/19 01:59:23;;;;;;;;;;;13.90;99.90;;;;;;5037807;28;19933;-78
2022/05/19 02:01:59;;;;;;;;;;;13.90;99.90;;;;;;5054370;28;20591;-77
2022/05/19 02:04:28;;;;;;;;;;;14.00;99.90;;;;;;5021659;28;19994;-78
2022/05/19 02:06:58;;;;;;;;;;;14.10;99.90;;;;;;5038092;28;19994;-78
2022/05/19 02:09:47;;;;;;;;;;;14.10;99.90;;;;;;5021842;28;19925;-77
2022/05/19 02:12:12;;;;;;;;;;;14.00;99.90;;;;;;5027076;28;19921;-78
2022/05/19 02:14:46;;;;;;;;;;;14.10;99.90;;;;;;5021143;28;19935;-78
2022/05/19 02:17:14;;;;;;;;;;;14.10;99.90;;;;;;5037751;28;19968;-79
2022/05/19 02:19:41;;;;;;;;;;;14.10;99.90;;;;;;5038159;28;19924;-77
2022/05/19 02:22:09;;;;;;;;;;;14.20;99.90;;;;;;5037274;28;19935;-79
2022/05/19 02:24:36;;;;;;;;;;;14.10;99.90;;;;;;5037220;28;19929;-79
2022/05/19 02:27:20;;;;;;;;;;;14.20;99.90;;;;;;5036653;28;20011;-79
2022/05/19 02:29:46;;;;;;;;;;;14.20;99.90;;;;;;5037862;28;19935;-78
2022/05/19 02:32:11;;;;;;;;;;;14.30;99.90;;;;;;5021295;28;20007;-77
2022/05/19 02:34:37;;;;;;;;;;;14.20;99.90;;;;;;5037807;28;19925;-77
2022/05/19 02:37:05;;;;;;;;;;;14.30;99.90;;;;;;5055115;28;19976;-78
2022/05/19 02:39:31;;;;;;;;;;;14.30;99.90;;;;;;5055154;28;19975;-77
2022/05/19 02:41:57;;;;;;;;;;;14.30;99.90;;;;;;5037291;28;19956;-78
2022/05/19 02:44:22;;;;;;;;;;;14.30;99.90;;;;;;5055103;28;20292;-78
2022/05/19 02:46:48;;;;;;;;;;;14.30;99.90;;;;;;5055231;28;20004;-78
2022/05/19 02:49:13;;;;;;;;;;;14.30;99.90;;;;;;5020367;28;19925;-77
2022/05/19 02:51:39;;;;;;;;;;;14.40;99.90;;;;;;5054484;28;20004;-77
2022/05/19 02:54:04;;;;;;;;;;;14.40;99.90;;;;;;5036895;28;20016;-81
2022/05/19 02:56:30;;;;;;;;;;;14.40;99.90;;;;;;5020884;28;19925;-78
2022/05/19 02:58:56;;;;;;;;;;;14.40;99.90;;;;;;5037252;28;20035;-79
2022/05/19 03:01:22;;;;;;;;;;;14.40;99.90;;;;;;5036063;28;20024;-80
2022/05/19 03:03:48;;;;;;;;;;;14.40;99.90;;;;;;5037087;28;19925;-78
2022/05/19 03:06:14;;;;;;;;;;;14.40;99.90;;;;;;5036744;28;19964;-78
2022/05/19 03:08:39;;;;;;;;;;;14.40;99.90;;;;;;5036498;28;19960;-78
2022/05/19 03:11:05;;;;;;;;;;;14.40;99.90;;;;;;5036303;28;19983;-79
2022/05/19 03:13:30;;;;;;;;;;;14.40;99.90;;;;;;5036166;28;19991;-81
2022/05/19 03:15:56;;;;;;;;;;;14.50;99.90;;;;;;5019974;28;19980;-78
2022/05/19 03:18:22;;;;;;;;;;;14.50;99.90;;;;;;5036277;28;20292;-78
2022/05/19 03:20:47;;;;;;;;;;;14.50;99.90;;;;;;5036144;28;20016;-78
2022/05/19 03:23:13;;;;;;;;;;;14.60;99.90;;;;;;5032902;28;19932;-78
2022/05/19 03:25:39;;;;;;;;;;;14.60;99.90;;;;;;5036757;28;20332;-78
2022/05/19 03:28:04;;;;;;;;;;;14.60;99.90;;;;;;5036549;28;20007;-78
2022/05/19 03:30:30;;;;;;;;;;;14.70;99.90;;;;;;5053737;28;19968;-79
2022/05/19 03:32:56;;;;;;;;;;;14.70;99.90;;;;;;5053046;28;19929;-79
2022/05/19 03:35:21;;;;;;;;;;;14.70;99.90;;;;;;5019649;28;19995;-80
2022/05/19 03:37:47;;;;;;;;;;;14.70;99.90;;;;;;5035884;28;19932;-79
2022/05/19 03:40:14;;;;;;;;;;;14.70;99.90;;;;;;5036406;28;20011;-78
2022/05/19 03:42:40;;;;;;;;;;;14.80;99.90;;;;;;5053507;28;19978;-78
2022/05/19 03:45:06;;;;;;;;;;;14.70;99.90;;;;;;4999414;28;19933;-79
2022/05/19 03:47:32;;;;;;;;;;;14.70;99.90;;;;;;5016610;28;19955;-78
2022/05/19 03:49:58;;;;;;;;;;;14.80;99.90;;;;;;5034033;28;19932;-78
2022/05/19 03:52:23;;;;;;;;;;;14.80;99.90;;;;;;5017861;28;19979;-78
2022/05/19 03:54:49;;;;;;;;;;;14.70;99.90;;;;;;5003152;28;19924;-77
2022/05/19 03:57:17;;;;;;;;;;;14.70;99.90;;;;;;5019878;28;19987;-78
2022/05/19 03:59:43;;;;;;;;;;;14.80;99.90;;;;;;5003607;28;20369;-78
2022/05/19 04:02:08;;;;;;;;;;;14.70;99.90;;;;;;5035639;28;20083;-78
2022/05/19 04:04:34;;;;;;;;;;;14.80;99.90;;;;;;5035701;28;20385;-78
2022/05/19 04:06:59;;;;;;;;;;;14.80;99.90;;;;;;5036034;28;20353;-78
2022/05/19 04:09:25;;;;;;;;;;;14.80;99.90;;;;;;5053542;28;19939;-78
2022/05/19 04:11:51;;;;;;;;;;;14.80;99.90;;;;;;5019667;28;20755;-78
2022/05/19 04:14:16;;;;;;;;;;;14.80;99.90;;;;;;5036236;28;19929;-80
2022/05/19 04:16:42;;;;;;;;;;;14.80;99.90;;;;;;5046757;28;20377;-79
2022/05/19 04:19:08;;;;;;;;;;;14.80;99.90;;;;;;5019159;28;20369;-78
2022/05/19 04:21:34;;;;;;;;;;;14.90;99.90;;;;;;5035438;28;19931;-78
2022/05/19 04:24:00;;;;;;;;;;;14.90;99.90;;;;;;5018513;28;20381;-78
2022/05/19 04:26:25;;;;;;;;;;;14.90;99.90;;;;;;5018215;28;19929;-79
2022/05/19 04:28:51;;;;;;;;;;;15.00;99.90;;;;;;5018739;28;20270;-80
2022/05/19 04:31:17;;;;;;;;;;;15.00;99.90;;;;;;5019087;28;20428;-79
2022/05/19 04:33:42;;;;;;;;;;;15.10;99.90;;;;;;5035041;28;19925;-78
2022/05/19 04:36:08;;;;;;;;;;;15.10;99.90;;;;;;5017894;28;19920;-83
2022/05/19 04:38:34;;;;;;;;;;;15.10;99.90;;;;;;5035117;28;19925;-78
2022/05/19 04:41:01;;;;;;;;;;;15.20;99.90;;;;;;5002240;28;19925;-78
2022/05/19 04:43:26;;;;;;;;;;;15.20;99.90;;;;;;5033725;28;19986;-78
2022/05/19 04:45:53;;;;;;;;;;;15.30;99.90;;;;;;5034550;28;19964;-78
2022/05/19 04:48:19;;;;;;;;;;;15.40;99.90;;;;;;5034589;28;19936;-78
2022/05/19 04:50:45;;;;;;;;;;;15.40;99.90;;;;;;5035152;28;19990;-78
2022/05/19 04:53:10;;;;;;;;;;;15.50;99.90;;;;;;5017915;28;19932;-87
2022/05/19 04:55:37;;;;;;;;;;;15.50;99.90;;;;;;5002044;28;19929;-80
2022/05/19 04:58:02;;;;;;;;;;;15.50;99.90;;;;;;5018282;28;20383;-77
2022/05/19 05:00:28;;;;;;;;;;;15.60;99.90;;;;;;5034888;28;20005;-79
2022/05/19 05:02:53;;;;;;;;;;;15.60;99.90;;;;;;5052107;28;19925;-79
2022/05/19 05:05:19;;;;;;;;;;;15.70;99.90;;;;;;5037828;28;20392;-79
2022/05/19 05:07:45;;;;;;;;;;;15.70;99.90;;;;;;5034809;28;20366;-80
2022/05/19 05:10:11;;;;;;;;;;;15.70;99.90;;;;;;5034420;28;19925;-79
2022/05/19 05:12:36;;;;;;;;;;;15.80;99.90;;;;;;5034597;28;20376;-80
2022/05/19 05:15:02;;;;;;;;;;;15.80;99.90;;;;;;5034657;28;20277;-78
2022/05/19 05:17:28;;;;;;;;;;;15.80;99.90;;;;;;5033792;28;19925;-79
2022/05/19 05:19:54;;;;;;;;;;;15.80;99.90;;;;;;5033325;28;20333;-79
2022/05/19 05:22:19;;;;;;;;;;;15.90;99.90;;;;;;5017414;28;19978;-79
2022/05/19 05:24:45;;;;;;;;;;;15.90;99.90;;;;;;5001410;28;19983;-82
2022/05/19 05:27:10;;;;;;;;;;;16.00;99.90;;;;;;5017892;28;19925;-80
2022/05/19 05:29:36;;;;;;;;;;;16.00;99.90;;;;;;5017923;28;19940;-80
2022/05/19 05:32:02;;;;;;;;;;;16.10;99.90;;;;;;5034455;28;19955;-80
2022/05/19 05:34:28;;;;;;;;;;;16.10;99.90;;;;;;5036194;28;19925;-80
2022/05/19 05:36:54;;;;;;;;;;;16.10;99.90;;;;;;5034790;28;20266;-80
2022/05/19 05:39:19;;;;;;;;;;;16.10;99.90;;;;;;5034272;28;19925;-77
2022/05/19 05:41:45;;;;;;;;;;;16.20;99.90;;;;;;5017781;28;19936;-77
2022/05/19 05:44:11;;;;;;;;;;;16.20;99.90;;;;;;5018391;28;19925;-77
2022/05/19 05:46:37;;;;;;;;;;;16.10;99.90;;;;;;5034489;28;19947;-78
2022/05/19 05:49:03;;;;;;;;;;;16.20;99.90;;;;;;5018436;28;19921;-78
2022/05/19 05:51:29;;;;;;;;;;;16.20;99.90;;;;;;5034498;28;19925;-75
2022/05/19 05:53:54;;;;;;;;;;;16.20;99.90;;;;;;5018375;28;19924;-77
2022/05/19 05:56:21;;;;;;;;;;;16.20;99.90;;;;;;5036890;28;19925;-77
2022/05/19 05:58:47;;;;;;;;;;;16.20;99.90;;;;;;5021634;28;19933;-82
2022/05/19 06:01:13;;;;;;;;;;;16.20;99.90;;;;;;5020578;28;19925;-81
2022/05/19 06:03:39;;;;;;;;;;;16.20;99.90;;;;;;5039878;28;19925;-90
2022/05/19 06:06:04;;;;;;;;;;;16.20;99.90;;;;;;5037291;28;20008;-82
2022/05/19 06:08:30;;;;;;;;;;;16.30;99.90;;;;;;5037320;28;19925;-80
2022/05/19 06:10:55;;;;;;;;;;;16.30;99.90;;;;;;5017940;28;19933;-80
2022/05/19 06:13:21;;;;;;;;;;;16.30;99.90;;;;;;5013814;28;20328;-82
2022/05/19 06:15:47;;;;;;;;;;;16.30;99.90;;;;;;5042548;28;20307;-80
2022/05/19 06:18:13;;;;;;;;;;;16.30;99.90;;;;;;5027413;28;19991;-81
2022/05/19 06:20:40;;;;;;;;;;;16.30;99.90;;;;;;5053982;28;19924;-80
2022/05/19 06:23:07;;;;;;;;;;;16.30;99.90;;;;;;5037785;28;19928;-81
2022/05/19 06:25:33;;;;;;;;;;;16.30;99.90;;;;;;5037517;28;19925;-80
2022/05/19 06:28:00;;;;;;;;;;;16.30;99.90;;;;;;5037103;28;20449;-81
2022/05/19 06:30:26;;;;;;;;;;;16.30;99.90;;;;;;5037097;28;20375;-81
2022/05/19 06:32:51;;;;;;;;;;;16.30;99.90;;;;;;5004496;28;19925;-81
2022/05/19 06:35:21;;;;;;;;;;;16.30;99.90;;;;;;5037153;28;20405;-80
2022/05/19 06:37:47;;;;;;;;;;;16.30;99.90;;;;;;5020458;28;19928;-80
2022/05/19 06:40:15;;;;;;;;;;;16.30;99.90;;;;;;5020342;28;20393;-80
2022/05/19 06:42:42;;;;;;;;;;;16.30;99.90;;;;;;5020015;28;20027;-79
2022/05/19 06:45:08;;;;;;;;;;;16.30;99.90;;;;;;5035876;28;19925;-81
2022/05/19 06:47:34;;;;;;;;;;;16.30;99.90;;;;;;5036379;28;20434;-80
2022/05/19 06:49:59;;;;;;;;;;;16.30;99.90;;;;;;5036049;28;19940;-78
2022/05/19 06:52:29;;;;;;;;;;;16.40;99.90;;;;;;5038448;28;19929;-79
2022/05/19 06:54:55;;;;;;;;;;;16.40;99.90;;;;;;5036110;28;20388;-80
2022/05/19 06:57:22;;;;;;;;;;;16.50;99.90;;;;;;5036597;28;20023;-80
2022/05/19 06:59:49;;;;;;;;;;;16.60;99.90;;;;;;5036613;28;20277;-79
2022/05/19 07:02:15;;;;;;;;;;;16.60;99.90;;;;;;5032279;28;19932;-79
2022/05/19 07:04:41;;;;;;;;;;;16.70;99.90;;;;;;5032510;28;19932;-79
2022/05/19 07:07:07;;;;;;;;;;;16.70;99.90;;;;;;5032637;28;19929;-79
2022/05/19 07:09:34;;;;;;;;;;;16.70;99.90;;;;;;5016417;28;19975;-79
2022/05/19 07:12:00;;;;;;;;;;;16.70;99.90;;;;;;5032897;28;20354;-79
2022/05/19 07:14:26;;;;;;;;;;;16.70;99.90;;;;;;5016614;28;19929;-77
2022/05/19 07:16:52;;;;;;;;;;;16.80;99.90;;;;;;5016097;28;19929;-77
2022/05/19 07:22:04;;;;;;;;;;;16.80;99.90;;;;;;5032526;28;20012;-79
2022/05/19 07:24:29;;;;;;;;;;;16.80;99.90;;;;;;5032548;28;20019;-79
2022/05/19 07:26:55;;;;;;;;;;;16.80;99.90;;;;;;5032691;28;20025;-79
2022/05/19 07:29:21;;;;;;;;;;;16.90;99.90;;;;;;5032436;28;19929;-79
2022/05/19 07:31:47;;;;;;;;;;;16.90;99.90;;;;;;5015641;28;19929;-79
2022/05/19 07:34:14;;;;;;;;;;;17.00;99.90;;;;;;5032349;28;19932;-79
2022/05/19 07:36:40;;;;;;;;;;;17.00;99.90;;;;;;5056586;28;19932;-79
2022/05/19 07:39:06;;;;;;;;;;;17.10;99.90;;;;;;5032572;28;20304;-79
2022/05/19 07:41:32;;;;;;;;;;;17.10;99.90;;;;;;5032544;28;20457;-80
2022/05/19 07:43:58;;;;;;;;;;;17.10;99.90;;;;;;5032840;28;20366;-79
2022/05/19 07:46:25;;;;;;;;;;;17.10;99.90;;;;;;5033339;28;19932;-79
2022/05/19 07:48:54;;;;;;;;;;;17.10;99.90;;;;;;5032351;28;19997;-78
2022/05/19 07:51:20;;;;;;;;;;;17.10;99.90;;;;;;5032663;28;19925;-79
2022/05/19 07:53:46;;;;;;;;;;;17.10;99.90;;;;;;5014664;28;20361;-76
2022/05/19 07:56:11;;;;;;;;;;;17.10;99.90;;;;;;5032013;28;19936;-77
2022/05/19 07:58:37;;;;;;;;;;;17.10;99.90;;;;;;5015646;28;20044;-77
2022/05/19 08:01:03;;;;;;;;;;;17.10;99.90;;;;;;5032587;28;19921;-76
2022/05/19 08:03:29;;;;;;;;;;;17.10;99.90;;;;;;5034339;28;20016;-76
2022/05/19 08:05:55;;;;;;;;;;;17.10;99.90;;;;;;5019077;28;19924;-77
2022/05/19 08:08:20;;;;;;;;;;;17.20;99.90;;;;;;5043310;28;19925;-76
2022/05/19 08:10:46;;;;;;;;;;;17.30;99.90;;;;;;5018776;28;19929;-76
2022/05/19 08:15:56;;;;;;;;;;;17.40;99.90;;;;;;5034678;28;19928;-76
2022/05/19 08:18:22;;;;;;;;;;;17.50;99.90;;;;;;5002187;28;20353;-76
2022/05/19 08:20:53;;;;;;;;;;;17.60;99.90;;;;;;5035099;28;19925;-76
2022/05/19 08:23:24;;;;;;;;;;;17.60;99.90;;;;;;5034900;28;19924;-77
2022/05/19 08:25:50;;;;;;;;;;;17.70;99.90;;;;;;5033894;28;20361;-77
2022/05/19 08:28:17;;;;;;;;;;;17.80;99.90;;;;;;5034869;28;19936;-77
2022/05/19 08:30:47;;;;;;;;;;;17.90;99.90;;;;;;5034719;28;19925;-77
2022/05/19 08:33:13;;;;;;;;;;;17.90;99.90;;;;;;5018675;28;19932;-77
2022/05/19 08:35:39;;;;;;;;;;;18.10;99.90;;;;;;5034410;28;19928;-77
2022/05/19 08:38:04;;;;;;;;;;;18.10;99.90;;;;;;5018634;28;19947;-76
2022/05/19 08:40:33;;;;;;;;;;;18.20;99.90;;;;;;5035099;28;19978;-77
2022/05/19 08:42:59;;;;;;;;;;;18.30;99.90;;;;;;5034794;28;19925;-77
2022/05/19 08:45:35;;;;;;;;;;;18.40;99.90;;;;;;5033884;28;20015;-78
2022/05/19 08:48:06;;;;;;;;;;;18.30;99.90;;;;;;5034923;28;19967;-76
2022/05/19 08:50:36;;;;;;;;;;;18.20;99.90;;;;;;5034235;28;20369;-79
2022/05/19 08:53:02;;;;;;;;;;;18.30;99.90;;;;;;5034704;28;19933;-78
2022/05/19 08:55:27;;;;;;;;;;;18.30;99.90;;;;;;5001647;28;19924;-77
2022/05/19 08:58:09;;;;;;;;;;;18.30;99.90;;;;;;5034552;28;19924;-76
2022/05/19 09:00:44;;;;;;;;;;;18.30;99.90;;;;;;5018289;28;19925;-80
2022/05/19 09:03:19;;;;;;;;;;;18.40;99.90;;;;;;5026336;28;19972;-77
2022/05/19 09:05:57;;;;;;;;;;;18.50;99.90;;;;;;5034807;28;20020;-77
2022/05/19 09:08:29;;;;;;;;;;;18.70;99.90;;;;;;5034293;28;19987;-77
2022/05/19 09:10:58;;;;;;;;;;;18.80;99.90;;;;;;5034701;28;19925;-77
2022/05/19 09:13:41;;;;;;;;;;;18.90;99.90;;;;;;5017858;28;19948;-77
2022/05/19 09:16:18;;;;;;;;;;;19.00;99.90;;;;;;5034439;28;19933;-78
2022/05/19 09:18:49;;;;;;;;;;;19.10;99.90;;;;;;5030896;28;19921;-77
2022/05/19 09:21:14;;;;;;;;;;;19.20;99.90;;;;;;5022579;28;19990;-80
2022/05/19 09:23:40;;;;;;;;;;;19.20;99.90;;;;;;5036096;28;19924;-84
2022/05/19 09:26:21;;;;;;;;;;;19.20;99.90;;;;;;5021152;28;19975;-83
2022/05/19 09:28:53;;;;;;;;;;;19.30;99.90;;;;;;5023058;28;20369;-80
2022/05/19 09:31:32;;;;;;;;;;;19.30;99.90;;;;;;5027551;28;19925;-79
2022/05/19 09:33:57;;;;;;;;;;;19.20;99.90;;;;;;5021734;28;19925;-88
2022/05/19 09:36:23;;;;;;;;;;;19.40;99.90;;;;;;5021998;28;19975;-77
2022/05/19 09:38:50;;;;;;;;;;;19.70;99.90;;;;;;5037838;28;20416;-81
2022/05/19 09:41:24;;;;;;;;;;;19.70;99.90;;;;;;5037355;28;19968;-77
2022/05/19 09:43:52;;;;;;;;;;;19.80;99.90;;;;;;5035994;28;19925;-76
2022/05/19 09:46:18;;;;;;;;;;;19.90;99.90;;;;;;5034368;28;20015;-79
2022/05/19 09:48:46;;;;;;;;;;;19.90;99.90;;;;;;5036630;28;19939;-79
2022/05/19 09:51:14;;;;;;;;;;;20.00;99.90;;;;;;5035985;28;19952;-81
2022/05/19 09:53:53;;;;;;;;;;;20.00;99.90;;;;;;5018247;28;19924;-78
2022/05/19 09:56:20;;;;;;;;;;;20.10;99.90;;;;;;5037005;28;19924;-79
2022/05/19 09:58:46;;;;;;;;;;;20.30;99.90;;;;;;5038103;28;19947;-79
2022/05/19 10:01:25;;;;;;;;;;;20.20;99.90;;;;;;5038777;28;19929;-79
2022/05/19 10:03:54;;;;;;;;;;;20.30;99.90;;;;;;5021150;28;19933;-78
2022/05/19 10:06:22;;;;;;;;;;;20.30;99.90;;;;;;5037551;28;19987;-78
2022/05/19 10:08:56;;;;;;;;;;;20.50;99.90;;;;;;5018051;28;20032;-77
2022/05/19 10:11:27;;;;;;;;;;;20.60;99.90;;;;;;5001703;28;19925;-78
2022/05/19 10:13:58;;;;;;;;;;;20.60;99.90;;;;;;5027399;28;19931;-78
2022/05/19 10:16:23;;;;;;;;;;;20.50;99.90;;;;;;5018193;28;19932;-78
2022/05/19 10:19:04;;;;;;;;;;;20.50;99.90;;;;;;5024215;28;19924;-77
2022/05/19 10:21:29;;;;;;;;;;;20.60;99.90;;;;;;5036497;28;20361;-78
2022/05/19 10:23:58;;;;;;;;;;;20.80;99.90;;;;;;5037014;28;19935;-80
2022/05/19 10:26:24;;;;;;;;;;;21.00;99.90;;;;;;5036542;28;19925;-82
2022/05/19 10:31:48;;;;;;;;;;;21.30;99.90;;;;;;5037231;28;19983;-79
2022/05/19 10:34:33;;;;;;;;;;;21.70;99.90;;;;;;5036787;28;19964;-80
2022/05/19 10:37:14;;;;;;;;;;;21.90;99.90;;;;;;5019781;28;19932;-80
2022/05/19 10:39:52;;;;;;;;;;;22.10;99.90;;;;;;5020378;28;19925;-76
2022/05/19 10:42:17;;;;;;;;;;;22.30;99.90;;;;;;5037027;28;20331;-77
2022/05/19 10:45:02;;;;;;;;;;;22.20;99.90;;;;;;5036479;28;20015;-78
2022/05/19 10:47:27;;;;;;;;;;;22.50;99.90;;;;;;5019642;28;19932;-77
2022/05/19 10:50:06;;;;;;;;;;;22.70;99.90;;;;;;5036625;28;19926;-78
2022/05/19 10:52:39;;;;;;;;;;;22.80;99.90;;;;;;5037254;28;19928;-76
2022/05/19 10:55:23;;;;;;;;;;;22.90;99.90;;;;;;5036543;28;19931;-77
2022/05/19 10:57:59;;;;;;;;;;;23.00;99.90;;;;;;5036398;28;19931;-80
2022/05/19 11:00:25;;;;;;;;;;;23.20;99.90;;;;;;5037324;28;20284;-87
2022/05/19 11:03:12;;;;;;;;;;;23.30;99.90;;;;;;5020286;28;19925;-88
2022/05/19 11:05:53;;;;;;;;;;;23.40;99.90;;;;;;5037008;28;20344;-89
2022/05/19 11:08:39;;;;;;;;;;;23.50;99.90;;;;;;5019345;28;19931;-87
2022/05/19 11:11:08;;;;;;;;;;;23.50;99.90;;;;;;5015618;28;19983;-78
2022/05/19 11:13:34;;;;;;;;;;;23.40;99.90;;;;;;5021294;28;19939;-80
2022/05/19 11:16:21;;;;;;;;;;;23.50;99.90;;;;;;5035659;28;19925;-77
2022/05/19 11:18:50;;;;;;;;;;;23.50;99.90;;;;;;5035406;28;19924;-76
2022/05/19 11:21:19;;;;;;;;;;;23.50;99.90;;;;;;5032899;28;19982;-80
2022/05/19 11:24:04;;;;;;;;;;;23.50;99.90;;;;;;5017331;28;19929;-79
2022/05/19 11:26:47;;;;;;;;;;;23.30;99.90;;;;;;5016920;28;19925;-78
2022/05/19 11:29:29;;;;;;;;;;;23.20;99.90;;;;;;5035571;28;20023;-79
2022/05/19 11:31:59;;;;;;;;;;;22.90;99.90;;;;;;5019249;28;19925;-79
2022/05/19 11:34:47;;;;;;;;;;;22.80;99.90;;;;;;5035541;28;20357;-79
2022/05/19 11:37:31;;;;;;;;;;;22.60;99.90;;;;;;5052918;28;19924;-79
2022/05/19 11:40:06;;;;;;;;;;;22.40;99.90;;;;;;5035724;28;20404;-78
2022/05/19 11:42:39;;;;;;;;;;;22.20;99.90;;;;;;5035741;28;19929;-78
2022/05/19 11:45:07;;;;;;;;;;;22.00;99.90;;;;;;5052158;28;20335;-80
2022/05/19 11:56:13;;;;;;;;;;;21.50;99.90;;;;;;5034796;28;19975;-82
2022/05/19 11:58:39;;;;;;;;;;;21.40;99.90;;;;;;5034623;28;19932;-87
2022/05/19 12:01:07;;;;;;;;;;;21.20;99.90;;;;;;5034562;28;19925;-86
2022/05/19 12:03:51;;;;;;;;;;;21.00;99.90;;;;;;5019049;28;19925;-86
2022/05/19 12:06:19;;;;;;;;;;;20.90;99.90;;;;;;5034465;28;19940;-86
2022/05/19 12:09:05;;;;;;;;;;;20.60;99.90;;;;;;5034940;28;20001;-85
2022/05/19 12:11:40;;;;;;;;;;;20.50;99.90;;;;;;5036091;28;19968;-87
2022/05/19 12:14:17;;;;;;;;;;;20.30;99.90;;;;;;5034605;28;19929;-85
2022/05/19 12:16:56;;;;;;;;;;;20.20;99.90;;;;;;5035211;28;19924;-87
2022/05/19 12:19:31;;;;;;;;;;;20.10;99.90;;;;;;5034877;28;19929;-88
2022/05/19 12:21:57;;;;;;;;;;;20.00;99.90;;;;;;5022675;28;19929;-94
2022/05/19 12:24:29;;;;;;;;;;;19.90;99.90;;;;;;5047154;28;19984;-95
2022/05/19 12:27:12;;;;;;;;;;;19.80;99.90;;;;;;5041156;28;19982;-87
2022/05/19 12:29:40;;;;;;;;;;;19.70;99.90;;;;;;5018264;28;20023;-83
2022/05/19 12:32:09;;;;;;;;;;;19.70;99.90;;;;;;5035081;28;20341;-86
2022/05/19 12:34:43;;;;;;;;;;;19.60;99.90;;;;;;5034631;28;20352;-83
2022/05/19 12:37:29;;;;;;;;;;;19.50;99.90;;;;;;5033845;28;19924;-88
2022/05/19 12:40:11;;;;;;;;;;;19.40;99.90;;;;;;5033807;28;19979;-86
2022/05/19 12:42:39;;;;;;;;;;;19.20;99.90;;;;;;5016906;28;19936;-87
2022/05/19 12:45:17;;;;;;;;;;;19.10;99.90;;;;;;5021094;28;20373;-86
2022/05/19 12:47:54;;;;;;;;;;;19.10;99.90;;;;;;5036053;28;20472;-87
2022/05/19 12:50:21;;;;;;;;;;;19.00;99.90;;;;;;5016023;28;19924;-87
2022/05/19 12:52:55;;;;;;;;;;;19.10;99.90;;;;;;5048712;28;20353;-87
2022/05/19 12:55:24;;;;;;;;;;;19.10;99.90;;;;;;5014728;28;19932;-87
2022/05/19 12:57:51;;;;;;;;;;;19.10;99.90;;;;;;5035313;28;20361;-88
2022/05/19 13:00:22;;;;;;;;;;;19.10;99.90;;;;;;5037974;28;19936;-86
2022/05/19 13:02:58;;;;;;;;;;;19.20;99.90;;;;;;5016864;28;19920;-88
2022/05/19 13:05:28;;;;;;;;;;;19.10;99.90;;;;;;5019508;28;20016;-88
2022/05/19 13:07:59;;;;;;;;;;;19.10;99.90;;;;;;5038734;28;20011;-84
2022/05/19 13:10:34;;;;;;;;;;;19.10;99.90;;;;;;5045543;28;19924;-86
2022/05/19 13:13:26;;;;;;;;;;;19.00;99.90;;;;;;5012386;28;20435;-81
2022/05/19 13:15:56;;;;;;;;;;;19.00;99.90;;;;;;5020084;28;19929;-84
2022/05/19 13:18:25;;;;;;;;;;;18.80;99.90;;;;;;5032821;28;19931;-83
2022/05/19 13:20:50;;;;;;;;;;;18.60;99.90;;;;;;5037722;28;19933;-84
2022/05/19 13:23:22;;;;;;;;;;;18.40;99.90;;;;;;5037004;28;19935;-84
2022/05/19 13:25:49;;;;;;;;;;;18.40;99.90;;;;;;5038340;28;19951;-84
2022/05/19 13:31:06;;;;;;;;;;;18.40;99.90;;;;;;5038779;28;19933;-84
2022/05/19 13:33:36;;;;;;;;;;;18.40;99.90;;;;;;5038091;28;20701;-84
2022/05/19 13:36:06;;;;;;;;;;;18.30;99.90;;;;;;5038610;28;19931;-83
2022/05/19 13:38:32;;;;;;;;;;;18.40;99.90;;;;;;5037410;28;19968;-83
2022/05/19 13:40:58;;;;;;;;;;;18.30;99.90;;;;;;5021871;28;19972;-83
2022/05/19 13:43:35;;;;;;;;;;;18.40;99.90;;;;;;5038134;28;19943;-84
2022/05/19 13:46:04;;;;;;;;;;;18.40;99.90;;;;;;5037803;28;19925;-83
2022/05/19 13:48:33;;;;;;;;;;;18.30;99.90;;;;;;5037190;28;19925;-83
2022/05/19 13:51:22;;;;;;;;;;;18.30;99.90;;;;;;5021018;28;19925;-82
2022/05/19 13:53:50;;;;;;;;;;;18.30;99.90;;;;;;5009662;28;20020;-82
2022/05/19 13:56:16;;;;;;;;;;;18.30;99.90;;;;;;5031462;28;19935;-83
2022/05/19 13:58:48;;;;;;;;;;;18.30;99.90;;;;;;5011958;28;19928;-82
2022/05/19 14:01:23;;;;;;;;;;;18.40;99.90;;;;;;5017921;28;19925;-83
2022/05/19 14:03:49;;;;;;;;;;;18.30;99.90;;;;;;5020750;28;19968;-82
2022/05/19 14:06:18;;;;;;;;;;;18.30;99.90;;;;;;5020635;28;19968;-82
2022/05/19 14:08:44;;;;;;;;;;;18.40;99.90;;;;;;5037188;28;20015;-82
2022/05/19 14:11:09;;;;;;;;;;;18.40;99.90;;;;;;5020321;28;20007;-82
2022/05/19 14:13:36;;;;;;;;;;;18.40;99.90;;;;;;5004507;28;19925;-82
2022/05/19 14:16:01;;;;;;;;;;;18.40;99.90;;;;;;5036671;28;19937;-83
2022/05/19 14:18:37;;;;;;;;;;;18.40;99.90;;;;;;5020335;28;20015;-85
2022/05/19 14:21:04;;;;;;;;;;;18.40;99.90;;;;;;5020721;28;20250;-82
2022/05/19 14:23:46;;;;;;;;;;;18.30;99.90;;;;;;5020669;28;19924;-82
2022/05/19 14:26:13;;;;;;;;;;;18.40;99.90;;;;;;5037300;28;20013;-82
2022/05/19 14:28:43;;;;;;;;;;;18.30;99.90;;;;;;5019893;28;19929;-82
2022/05/19 14:31:10;;;;;;;;;;;18.40;99.90;;;;;;5036731;28;19925;-82
2022/05/19 14:33:37;;;;;;;;;;;18.50;99.90;;;;;;5020358;28;19935;-82
2022/05/19 14:36:06;;;;;;;;;;;18.50;99.90;;;;;;5037186;28;19995;-82
2022/05/19 14:38:53;;;;;;;;;;;18.60;99.90;;;;;;5029781;28;19975;-82
2022/05/19 14:44:10;;;;;;;;;;;18.70;99.90;;;;;;5030101;28;19951;-82
2022/05/19 14:46:41;;;;;;;;;;;18.80;99.90;;;;;;5020204;28;20328;-83
2022/05/19 14:49:08;;;;;;;;;;;19.00;99.90;;;;;;5020147;28;19983;-83
2022/05/19 14:51:38;;;;;;;;;;;19.20;99.90;;;;;;5018894;28;19997;-82